Share

Manter, KS (67862)

KCOWALSH2 Elev 3766 ft | 37.27 °N, 102.13 °W | Change Station

Current weather conditions updated 5 minutes ago

Mostly Cloudy
Mostly Cloudy
50.6 °F
Feels Like 50.6 °F
N
5.0
Wind Variable Wind from South
Gusts 22.0 mph
Sunrise 7:09 AM
Sunset 8:24 PM
Moon Waning Gibbous

Tomorrow is forecast to be Much Warmer than today.

Pressure 30.12 in
Visibility 10.0 miles
Clouds Few 3600 ft
Mostly Cloudy 5500 ft
Dew Point 41 °F
Humidity 70%
Rainfall 0.05 in
Snow Depth Not available.
UV 4 out of 16
Pollen 7.50 out of 12
Air Quality Not available.
Flu Activity Sporadic
METAR KLAA 172053Z AUTO 16015KT 10SM FEW036 BKN055 13/04 A3016 RMK AO2 SLP200 T01280039 56018

More Conditions Fewer Conditions

Pressure 30.12 in
Visibility 10.0 miles
Clouds Few 3600 ft
Mostly Cloudy 5500 ft
Dew Point 41 °F
Humidity 70%
Rainfall 0.05 in
Snow Depth Not available.
UV 4 out of 16
Pollen 7.50 out of 12
Air Quality Not available.
Flu Activity Sporadic
METAR KLAA 172053Z AUTO 16015KT 10SM FEW036 BKN055 13/04 A3016 RMK AO2 SLP200 T01280039 56018

More Conditions Fewer Conditions

10-Day Forecast

Almanac

Astronomy

Apr. 17, 2014 Rise Set
Actual Time 7:09 AM CDT 8:24 PM CDT
Civil Twilight 6:42 AM CDT 8:52 PM CDT
Nautical Twilight 6:10 AM CDT 9:24 PM CDT
Astronomical Twilight 5:36 AM CDT 9:58 PM CDT
Moon 11:10 PM CDT 8:45 AM CDT
Length of Visible Light 14h 09m
Length of Day
13h 14m
Tomorrow will be 2m 17s longer.
Waning Gibbous, 92% of the Moon is Illuminated
Today
Waning Gibbous
Apr 22
Last Quarter
Apr 29
New
May 6
First Quarter
May 14
Full

Today's Extremes

State Highs State Lows

Community

  • Morning Light
    Morning Light
  • New Day
    New Day
  • Lake Michigan Sunrise
    Lake Michigan Sunrise
  • sunset from izmir, narlıdere
    sunset from izmir, narlıdere
  • oregon cherry
    oregon cherry

WunderPhotos

Upload Photos

1,702,140 photos uploaded!

Nearby

Snow Depth

Station Depth Elevation
No new snow has been reported.

Coastal Water Temperatures

Place Temperature
No Stations Reporting

Earthquake Activity

City Distance Mag. Time & Date
No recent earthquake activity has been reported nearby.
Minimum magnitude displayed is 2.5.

Nearby Weather Stations

Station Location Temp. Dew Point Humidity Wind Precip. Elev Updated Type
Walsh, CO 50.6 °F 41 °F 70% South  at  5.0 mph 0.00 in / hr 3766 ft 3:25 PM MDT Normal

Show More Stations Show Fewer Stations

What do you think?

We're not finished. Please let us know what you like, what you don't like, and what you are still missing.